Time;durP1;ratioP1;P1;durP2;ratioP2;P2;SDS_P1;SDS_P2;PMS_P1;PMS_P2;Temp;Humidity;BMP_temperature;BMP_pressure;BME280_temperature;BME280_humidity;BME280_pressure;Samples;Min_cycle;Max_cycle;Signal;HPM_P1;HPM_P2
2022/11/14 00:02:07;;;;;;;66.20;19.00;;;7.20;36.70;;;;;;5045975;28;20597;-73
2022/11/14 00:04:32;;;;;;;53.10;19.23;;;7.10;36.80;;;;;;5051827;28;20205;-73
2022/11/14 00:06:58;;;;;;;58.10;21.93;;;7.10;36.70;;;;;;5047189;28;20192;-73
2022/11/14 00:09:25;;;;;;;66.57;22.60;;;7.10;36.60;;;;;;5050312;28;20178;-73
2022/11/14 00:11:50;;;;;;;71.47;24.80;;;7.10;36.70;;;;;;5047298;28;20193;-73
2022/11/14 00:14:16;;;;;;;63.03;22.07;;;7.10;36.70;;;;;;5046301;28;20468;-73
2022/11/14 00:16:41;;;;;;;58.37;22.47;;;7.10;36.80;;;;;;5047602;28;20181;-73
2022/11/14 00:19:07;;;;;;;48.63;20.90;;;7.20;36.70;;;;;;5051570;28;20174;-73
2022/11/14 00:21:32;;;;;;;52.90;20.07;;;7.20;36.70;;;;;;5049257;28;20226;-73
2022/11/14 00:23:58;;;;;;;55.23;20.43;;;7.20;39.40;;;;;;5050793;28;20703;-73
2022/11/14 00:26:23;;;;;;;40.13;18.27;;;7.10;36.70;;;;;;5038723;28;20208;-73
2022/11/14 00:28:49;;;;;;;48.20;18.87;;;7.20;36.70;;;;;;5051682;28;20185;-73
2022/11/14 00:31:15;;;;;;;64.43;19.83;;;7.20;36.80;;;;;;5042651;28;20177;-73
2022/11/14 00:33:40;;;;;;;54.67;19.43;;;7.20;37.00;;;;;;5050810;28;20193;-73
2022/11/14 00:36:06;;;;;;;50.20;20.13;;;7.20;36.90;;;;;;5042485;28;20201;-74
2022/11/14 00:38:31;;;;;;;46.23;19.80;;;7.30;36.80;;;;;;5050831;28;20180;-73
2022/11/14 00:40:57;;;;;;;43.43;18.13;;;7.30;37.00;;;;;;5045588;28;20540;-73
2022/11/14 00:43:22;;;;;;;45.20;19.10;;;7.30;36.90;;;;;;5050535;28;20208;-73
2022/11/14 00:45:48;;;;;;;48.40;19.47;;;7.30;36.80;;;;;;5048427;28;20173;-73
2022/11/14 00:48:14;;;;;;;44.63;17.70;;;7.30;37.00;;;;;;5050746;28;20691;-73
2022/11/14 00:50:41;;;;;;;44.50;19.90;;;7.30;36.80;;;;;;5040010;28;20213;-73
2022/11/14 00:53:06;;;;;;;45.90;20.03;;;7.30;34.60;;;;;;5042527;28;20432;-73
2022/11/14 00:55:32;;;;;;;46.43;19.20;;;7.30;36.90;;;;;;5044085;28;20516;-73
2022/11/14 00:57:57;;;;;;;35.27;18.70;;;7.40;37.00;;;;;;5044723;28;20182;-74
2022/11/14 01:00:23;;;;;;;35.20;18.13;;;7.40;37.00;;;;;;5046344;28;20181;-74
2022/11/14 01:02:48;;;;;;;39.13;18.00;;;7.40;36.80;;;;;;5046504;28;20182;-73
2022/11/14 01:05:14;;;;;;;35.80;17.10;;;7.40;34.60;;;;;;5048474;28;20205;-74
2022/11/14 01:07:39;;;;;;;28.63;17.50;;;7.40;37.00;;;;;;5047605;28;20239;-74
2022/11/14 01:10:05;;;;;;;37.63;17.10;;;7.40;36.80;;;;;;5049945;28;20181;-74
2022/11/14 01:12:32;;;;;;;29.37;16.43;;;7.40;36.70;;;;;;5048366;28;20264;-74
2022/11/14 01:14:57;;;;;;;29.57;15.87;;;7.40;36.80;;;;;;5048234;28;20455;-74
2022/11/14 01:17:23;;;;;;;30.43;16.20;;;7.30;36.90;;;;;;5045492;28;20829;-74
2022/11/14 01:19:48;;;;;;;27.83;15.27;;;7.40;36.70;;;;;;5047887;28;20208;-73
2022/11/14 01:22:14;;;;;;;30.77;16.60;;;7.30;36.70;;;;;;5048145;28;20181;-74
2022/11/14 01:24:39;;;;;;;26.90;15.47;;;7.30;36.70;;;;;;5045306;28;20206;-74
2022/11/14 01:27:05;;;;;;;26.50;16.53;;;7.30;36.60;;;;;;5046286;28;20208;-74
2022/11/14 01:29:30;;;;;;;31.70;15.20;;;7.20;36.50;;;;;;5050216;28;20686;-74
2022/11/14 01:31:56;;;;;;;26.30;16.17;;;7.10;36.50;;;;;;5044499;28;20177;-73
2022/11/14 01:34:22;;;;;;;26.30;16.57;;;7.00;36.50;;;;;;5049513;28;20213;-73
2022/11/14 01:36:48;;;;;;;23.43;14.30;;;6.90;36.40;;;;;;5042661;28;20181;-74
2022/11/14 01:39:13;;;;;;;25.67;15.10;;;6.80;36.40;;;;;;5046350;28;20429;-74
2022/11/14 01:41:39;;;;;;;27.73;15.67;;;6.70;36.30;;;;;;5045930;28;20187;-74
2022/11/14 01:44:11;;;;;;;23.10;14.67;;;6.60;36.30;;;;;;5042486;28;20571;-74
2022/11/14 01:46:40;;;;;;;27.57;14.60;;;6.70;36.30;;;;;;5046852;28;20176;-73
2022/11/14 01:49:09;;;;;;;27.57;15.70;;;6.60;36.20;;;;;;5033859;28;20853;-74
2022/11/14 01:51:41;;;;;;;24.13;14.37;;;6.60;36.50;;;;;;5049216;28;20453;-74
2022/11/14 01:54:15;;;;;;;23.07;14.23;;;6.70;36.20;;;;;;5043281;28;20482;-73
2022/11/14 01:56:51;;;;;;;24.07;15.57;;;6.70;36.20;;;;;;5044793;28;20429;-73
2022/11/14 01:59:39;;;;;;;26.97;15.70;;;6.80;36.30;;;;;;5049290;28;20914;-74
2022/11/14 02:02:23;;;;;;;23.80;15.10;;;6.80;36.30;;;;;;5036133;28;20435;-74
2022/11/14 02:05:05;;;;;;;25.03;14.60;;;6.90;36.40;;;;;;5048129;28;20455;-74
2022/11/14 02:07:34;;;;;;;22.97;13.77;;;6.90;36.30;;;;;;5044547;28;20439;-74
2022/11/14 02:10:04;;;;;;;24.17;14.33;;;6.90;36.40;;;;;;5045986;28;21028;-73
2022/11/14 02:12:30;;;;;;;23.70;14.77;;;6.90;36.30;;;;;;5041115;28;20523;-73
2022/11/14 02:14:57;;;;;;;20.63;13.53;;;6.90;36.30;;;;;;5045646;28;20567;-73
2022/11/14 02:17:24;;;;;;;23.07;14.90;;;6.90;36.50;;;;;;5049469;28;20192;-74
2022/11/14 02:19:53;;;;;;;23.00;14.90;;;6.90;36.40;;;;;;5045460;28;20511;-74
2022/11/14 02:22:19;;;;;;;18.90;13.07;;;6.90;36.40;;;;;;5039847;28;20439;-74
2022/11/14 02:24:45;;;;;;;23.53;14.90;;;6.90;36.30;;;;;;5047260;28;20783;-73
2022/11/14 02:27:12;;;;;;;22.00;13.97;;;6.90;36.40;;;;;;5040391;28;20181;-74
2022/11/14 02:29:38;;;;;;;22.03;14.47;;;6.90;36.40;;;;;;5047751;28;20200;-74
2022/11/14 02:32:04;;;;;;;21.50;14.73;;;6.90;31.80;;;;;;5049317;28;20424;-74
2022/11/14 02:34:29;;;;;;;22.50;15.03;;;6.90;30.30;;;;;;5051592;28;20703;-73
2022/11/14 02:36:56;;;;;;;20.87;14.13;;;6.90;35.80;;;;;;5044003;28;20611;-73
2022/11/14 02:39:22;;;;;;;24.00;15.10;;;7.00;31.90;;;;;;5046627;28;20220;-73
2022/11/14 02:41:49;;;;;;;23.33;14.17;;;7.00;27.50;;;;;;5049748;28;20431;-73
2022/11/14 02:44:15;;;;;;;23.60;15.13;;;6.90;27.50;;;;;;5047153;28;20460;-73
2022/11/14 02:46:40;;;;;;;25.93;15.47;;;6.90;28.50;;;;;;5050524;28;20418;-73
2022/11/14 02:49:06;;;;;;;23.43;15.20;;;6.90;25.50;;;;;;5049719;28;20276;-74
2022/11/14 02:51:31;;;;;;;24.23;15.53;;;6.90;28.20;;;;;;5052356;28;20264;-73
2022/11/14 02:53:57;;;;;;;26.30;15.43;;;6.80;28.00;;;;;;5049815;28;20227;-74
2022/11/14 02:56:22;;;;;;;25.43;15.47;;;6.80;27.30;;;;;;5045255;28;20277;-73
2022/11/14 02:58:48;;;;;;;24.80;15.30;;;6.70;26.80;;;;;;5051190;28;20666;-74
2022/11/14 03:01:13;;;;;;;26.60;16.43;;;6.60;26.90;;;;;;5051129;28;20260;-74
2022/11/14 03:03:39;;;;;;;22.63;14.50;;;6.50;27.60;;;;;;5050960;28;20667;-74
2022/11/14 03:06:04;;;;;;;23.10;14.37;;;6.50;28.30;;;;;;5048501;28;20217;-74
2022/11/14 03:08:30;;;;;;;24.60;14.73;;;6.50;28.80;;;;;;5050543;28;20181;-75
2022/11/14 03:11:02;;;;;;;23.43;14.03;;;6.50;26.00;;;;;;5049424;28;20177;-75
2022/11/14 03:13:29;;;;;;;20.77;12.33;;;6.40;26.80;;;;;;5053137;28;20192;-75
2022/11/14 03:15:55;;;;;;;19.93;12.83;;;6.30;27.70;;;;;;5042762;28;20479;-75
2022/11/14 03:18:21;;;;;;;21.70;13.37;;;6.20;25.20;;;;;;5050915;28;20470;-75
2022/11/14 03:20:46;;;;;;;21.87;13.47;;;6.20;27.00;;;;;;5046252;28;21121;-75
2022/11/14 03:23:12;;;;;;;22.80;12.93;;;4.30;24.90;;;;;;5046342;28;20759;-74
2022/11/14 03:25:37;;;;;;;20.60;13.10;;;6.30;28.70;;;;;;5049272;28;20256;-75
2022/11/14 03:28:03;;;;;;;23.00;12.90;;;6.30;25.80;;;;;;5049906;28;20262;-75
2022/11/14 03:30:28;;;;;;;20.30;12.73;;;6.20;25.00;;;;;;5051996;28;20458;-75
2022/11/14 03:32:55;;;;;;;18.73;11.80;;;6.20;25.70;;;;;;5047486;28;20185;-75
2022/11/14 03:35:21;;;;;;;22.67;13.90;;;6.20;24.70;;;;;;5049523;28;20217;-75
2022/11/14 03:37:46;;;;;;;20.43;13.50;;;6.20;26.90;;;;;;5050256;28;20490;-75
2022/11/14 03:40:12;;;;;;;21.13;13.37;;;6.20;26.70;;;;;;5044767;28;20659;-75
2022/11/14 03:42:37;;;;;;;20.00;12.80;;;6.30;27.90;;;;;;5049999;28;20169;-76
2022/11/14 03:45:03;;;;;;;19.53;12.30;;;6.30;21.80;;;;;;5043870;28;20208;-75
2022/11/14 03:47:29;;;;;;;20.03;12.70;;;6.30;19.90;;;;;;5051990;28;20197;-75
2022/11/14 03:49:54;;;;;;;21.30;12.77;;;6.20;19.30;;;;;;5043415;28;20541;-75
2022/11/14 03:52:20;;;;;;;19.50;12.43;;;6.20;18.90;;;;;;5048509;28;20686;-75
2022/11/14 03:54:45;;;;;;;20.73;13.00;;;6.20;19.60;;;;;;5050121;28;20227;-75
2022/11/14 03:57:11;;;;;;;19.87;13.13;;;6.20;20.30;;;;;;5046940;28;20177;-75
2022/11/14 03:59:36;;;;;;;23.00;13.00;;;6.30;19.80;;;;;;5051906;28;20458;-75
2022/11/14 04:02:02;;;;;;;21.63;13.23;;;6.20;19.90;;;;;;5044754;28;20184;-75
2022/11/14 04:04:27;;;;;;;22.17;12.87;;;6.30;19.00;;;;;;5047390;28;20209;-75
2022/11/14 04:06:53;;;;;;;20.60;12.63;;;6.40;20.40;;;;;;5047205;28;20208;-75
2022/11/14 04:09:19;;;;;;;22.03;12.63;;;6.40;19.10;;;;;;5051686;28;20174;-75
2022/11/14 04:11:44;;;;;;;21.13;13.13;;;6.40;16.90;;;;;;5048900;28;20610;-75
2022/11/14 04:14:10;;;;;;;21.73;13.37;;;6.40;19.30;;;;;;5050695;28;20193;-75
2022/11/14 04:16:35;;;;;;;21.00;13.43;;;6.40;18.00;;;;;;5048572;28;20644;-75
2022/11/14 04:19:01;;;;;;;20.77;13.90;;;6.30;17.90;;;;;;5051732;28;20173;-75
2022/11/14 04:21:26;;;;;;;20.90;12.67;;;6.30;19.90;;;;;;5041657;28;20239;-75
2022/11/14 04:23:52;;;;;;;22.33;12.90;;;6.40;17.90;;;;;;5050943;28;20276;-75
2022/11/14 04:26:17;;;;;;;20.47;13.63;;;6.30;18.70;;;;;;5040301;28;20203;-75
2022/11/14 04:28:43;;;;;;;21.83;13.53;;;6.30;19.00;;;;;;5047384;28;20177;-76
2022/11/14 04:31:08;;;;;;;24.10;14.40;;;6.40;18.80;;;;;;5050282;28;20571;-75
2022/11/14 04:33:34;;;;;;;21.07;12.83;;;6.40;18.50;;;;;;5050142;28;20234;-74
2022/11/14 04:35:59;;;;;;;23.90;13.67;;;6.40;18.00;;;;;;5044790;28;20200;-74
2022/11/14 04:38:25;;;;;;;20.33;12.90;;;6.50;19.90;;;;;;5050902;28;20299;-75
2022/11/14 04:40:51;;;;;;;20.83;13.23;;;6.50;17.60;;;;;;5041539;28;20698;-75
2022/11/14 04:43:18;;;;;;;22.80;12.73;;;6.50;20.50;;;;;;5046895;28;20197;-75
2022/11/14 04:45:44;;;;;;;23.40;13.50;;;6.60;19.60;;;;;;5050973;28;20937;-75
2022/11/14 04:48:09;;;;;;;24.80;13.83;;;6.60;17.50;;;;;;5047183;28;20490;-75
2022/11/14 04:50:35;;;;;;;20.73;13.57;;;6.60;16.30;;;;;;5041695;28;20185;-75
2022/11/14 04:53:01;;;;;;;25.17;13.50;;;6.70;13.50;;;;;;5042532;28;20183;-75
2022/11/14 04:55:26;;;;;;;24.50;13.57;;;6.70;15.50;;;;;;5050710;28;20693;-75
2022/11/14 04:57:54;;;;;;;22.17;13.33;;;6.70;16.10;;;;;;5045465;28;20208;-76
2022/11/14 05:00:19;;;;;;;25.20;13.93;;;6.60;16.10;;;;;;5047250;28;21480;-75
2022/11/14 05:02:45;;;;;;;21.80;13.57;;;6.70;17.10;;;;;;5039594;28;20481;-75
2022/11/14 05:05:10;;;;;;;22.70;14.20;;;6.70;14.60;;;;;;5047536;28;20275;-75
2022/11/14 05:07:36;;;;;;;23.07;13.30;;;6.70;14.80;;;;;;5047069;28;20261;-75
2022/11/14 05:10:02;;;;;;;21.13;13.10;;;6.60;15.00;;;;;;5048580;28;20548;-75
2022/11/14 05:12:28;;;;;;;26.80;13.57;;;6.60;15.50;;;;;;5046327;28;20176;-75
2022/11/14 05:14:53;;;;;;;24.90;13.83;;;6.60;16.20;;;;;;5050526;28;20452;-76
2022/11/14 05:17:19;;;;;;;23.30;13.90;;;6.60;16.90;;;;;;5046932;28;20622;-76
2022/11/14 05:19:44;;;;;;;22.90;13.80;;;6.50;15.60;;;;;;5047404;28;20200;-75
2022/11/14 05:22:10;;;;;;;22.93;13.30;;;6.90;19.40;;;;;;5041721;28;20165;-76
2022/11/14 05:24:35;;;;;;;24.90;12.80;;;6.50;17.80;;;;;;5048333;28;20201;-75
2022/11/14 05:27:01;;;;;;;25.00;14.50;;;6.60;18.20;;;;;;5039580;28;20256;-76
2022/11/14 05:29:26;;;;;;;23.20;14.33;;;6.60;16.70;;;;;;5044195;28;20280;-75
2022/11/14 05:31:52;;;;;;;22.27;13.60;;;6.60;16.50;;;;;;5046910;28;20173;-75
2022/11/14 05:34:17;;;;;;;18.90;12.60;;;6.60;14.70;;;;;;5035097;28;20745;-75
2022/11/14 05:36:43;;;;;;;22.63;14.00;;;6.60;14.10;;;;;;5049153;28;20177;-75
2022/11/14 05:39:08;;;;;;;23.73;13.70;;;6.60;15.40;;;;;;5047437;28;20640;-74
2022/11/14 05:41:34;;;;;;;19.93;13.30;;;6.50;14.90;;;;;;5045831;28;20177;-75
2022/11/14 05:43:59;;;;;;;25.57;14.73;;;6.60;13.40;;;;;;5048396;28;20192;-75
2022/11/14 05:46:25;;;;;;;20.43;12.97;;;6.60;13.30;;;;;;5045124;28;20603;-74
2022/11/14 05:48:50;;;;;;;21.90;13.30;;;6.60;11.30;;;;;;5047960;28;20189;-75
2022/11/14 05:51:16;;;;;;;21.03;13.30;;;6.60;11.60;;;;;;5046207;28;20193;-75
2022/11/14 05:53:41;;;;;;;21.40;13.57;;;6.50;11.20;;;;;;5049353;28;20197;-75
2022/11/14 05:56:10;;;;;;;19.50;13.30;;;6.50;10.90;;;;;;5048009;28;20205;-75
2022/11/14 05:58:36;;;;;;;19.30;12.43;;;6.50;9.50;;;;;;5049280;28;20239;-74
2022/11/14 06:01:07;;;;;;;18.90;12.80;;;6.40;10.10;;;;;;5041254;28;20463;-74
2022/11/14 06:03:35;;;;;;;19.00;12.50;;;6.30;10.60;;;;;;5049589;28;20420;-74
2022/11/14 06:06:06;;;;;;;19.97;12.93;;;6.20;11.30;;;;;;5046689;28;20475;-74
2022/11/14 06:08:33;;;;;;;18.07;12.40;;;6.10;13.10;;;;;;5048537;28;20420;-75
2022/11/14 06:11:08;;;;;;;21.77;12.60;;;6.10;13.30;;;;;;5040290;28;20435;-75
2022/11/14 06:13:34;;;;;;;19.40;13.30;;;6.00;15.90;;;;;;5049390;28;20525;-75
2022/11/14 06:16:01;;;;;;;20.10;12.67;;;5.90;16.20;;;;;;5039755;28;20879;-74
2022/11/14 06:18:28;;;;;;;18.70;12.70;;;5.90;18.30;;;;;;5043175;28;20489;-75
2022/11/14 06:20:57;;;;;;;21.57;13.63;;;5.80;19.20;;;;;;5041489;28;20435;-74
2022/11/14 06:23:22;;;;;;;20.83;12.63;;;5.80;19.40;;;;;;5045264;28;20455;-75
2022/11/14 06:25:48;;;;;;;18.83;12.33;;;5.80;20.70;;;;;;5049391;28;20418;-75
2022/11/14 06:28:13;;;;;;;19.17;12.57;;;5.70;19.60;;;;;;5046452;28;20185;-75
2022/11/14 06:30:40;;;;;;;31.33;13.87;;;5.80;19.30;;;;;;5049055;28;20181;-75
2022/11/14 06:33:06;;;;;;;21.33;13.57;;;5.80;19.10;;;;;;5046934;28;20185;-75
2022/11/14 06:35:32;;;;;;;19.13;12.13;;;5.80;21.10;;;;;;5048707;28;20524;-75
2022/11/14 06:37:59;;;;;;;21.43;13.30;;;5.80;21.20;;;;;;5046195;28;20256;-75
2022/11/14 06:40:24;;;;;;;22.60;13.77;;;5.80;21.00;;;;;;5047978;28;20470;-75
2022/11/14 06:42:50;;;;;;;21.07;12.97;;;5.80;19.90;;;;;;5045652;28;20468;-74
2022/11/14 06:45:15;;;;;;;20.63;12.80;;;5.70;17.90;;;;;;5047860;28;20631;-75
2022/11/14 06:47:41;;;;;;;20.40;13.23;;;5.80;19.50;;;;;;5045881;28;20535;-75
2022/11/14 06:50:07;;;;;;;20.00;12.70;;;5.90;18.50;;;;;;5049012;28;20212;-75
2022/11/14 06:52:32;;;;;;;19.80;13.17;;;5.90;18.60;;;;;;5046279;28;20185;-74
2022/11/14 06:54:58;;;;;;;30.30;13.53;;;5.90;18.60;;;;;;5039568;28;20635;-75
2022/11/14 06:57:23;;;;;;;22.40;14.10;;;6.00;18.90;;;;;;5035896;28;20201;-75
2022/11/14 06:59:49;;;;;;;21.70;13.60;;;6.10;17.80;;;;;;5048616;28;20176;-75
2022/11/14 07:02:14;;;;;;;21.60;13.43;;;6.20;15.70;;;;;;5040976;28;20790;-75
2022/11/14 07:04:40;;;;;;;21.40;13.20;;;6.30;14.60;;;;;;5034436;28;20250;-74
2022/11/14 07:07:05;;;;;;;20.70;13.33;;;6.40;11.20;;;;;;5037414;28;20177;-74
2022/11/14 07:09:31;;;;;;;18.33;12.40;;;6.60;10.20;;;;;;5045637;28;20714;-75
2022/11/14 07:11:56;;;;;;;23.60;14.90;;;6.70;6.30;;;;;;5048372;28;20208;-75
2022/11/14 07:14:22;;;;;;;21.27;13.97;;;6.80;7.20;;;;;;5045587;28;20295;-76
2022/11/14 07:16:47;;;;;;;22.40;14.30;;;7.00;5.60;;;;;;5035837;28;20178;-75
2022/11/14 07:19:13;;;;;;;20.70;13.33;;;6.80;1.00;;;;;;5042561;28;20600;-75
2022/11/14 07:21:39;;;;;;;18.93;12.73;;;7.10;1.00;;;;;;5049606;28;20239;-75
2022/11/14 07:24:04;;;;;;;22.70;14.53;;;7.00;1.00;;;;;;5043606;28;20567;-75
2022/11/14 07:26:30;;;;;;;21.70;13.53;;;7.00;1.00;;;;;;5043284;28;20189;-74
2022/11/14 07:28:56;;;;;;;21.43;13.20;;;6.90;1.00;;;;;;5051730;28;20233;-75
2022/11/14 07:31:21;;;;;;;22.60;13.50;;;6.90;1.00;;;;;;5052095;28;20185;-75
2022/11/14 07:33:47;;;;;;;21.50;13.37;;;7.00;1.00;;;;;;5042182;28;20193;-75
2022/11/14 07:36:14;;;;;;;19.00;12.27;;;7.00;1.00;;;;;;5044686;28;20266;-75
2022/11/14 07:38:39;;;;;;;23.33;14.97;;;7.00;1.00;;;;;;5049559;28;20173;-75
2022/11/14 07:41:08;;;;;;;20.07;12.60;;;7.00;1.00;;;;;;5042794;28;20438;-75
2022/11/14 07:43:33;;;;;;;23.33;12.70;;;7.00;1.00;;;;;;5047973;28;20247;-75
2022/11/14 07:46:04;;;;;;;20.20;13.30;;;7.00;1.00;;;;;;5043654;28;20435;-75
2022/11/14 07:48:30;;;;;;;24.07;12.30;;;7.10;1.00;;;;;;5051931;28;20626;-75
2022/11/14 07:51:00;;;;;;;21.37;13.50;;;7.20;1.00;;;;;;5035826;28;20482;-74
2022/11/14 07:53:27;;;;;;;17.03;11.37;;;7.20;1.00;;;;;;5050888;28;20538;-74
2022/11/14 07:55:52;;;;;;;20.43;12.37;;;7.30;1.00;;;;;;5045756;28;20466;-76
2022/11/14 07:58:18;;;;;;;17.97;12.07;;;7.40;1.00;;;;;;5043420;28;20432;-75
2022/11/14 08:00:43;;;;;;;21.60;13.43;;;7.60;1.00;;;;;;5050225;28;20212;-74
2022/11/14 08:03:09;;;;;;;17.00;11.10;;;7.90;1.00;;;;;;5046307;28;20181;-75
2022/11/14 08:05:36;;;;;;;16.40;10.90;;;7.90;1.00;;;;;;5050333;28;20243;-74
2022/11/14 08:08:02;;;;;;;15.23;9.97;;;7.90;1.00;;;;;;5039304;28;20441;-76
2022/11/14 08:10:27;;;;;;;15.70;11.23;;;7.90;1.00;;;;;;5043300;28;20791;-75
2022/11/14 08:12:58;;;;;;;15.60;10.27;;;8.20;1.00;;;;;;5047238;28;20423;-75
2022/11/14 08:15:23;;;;;;;15.37;9.97;;;8.20;1.00;;;;;;5043148;28;20208;-75
2022/11/14 08:17:49;;;;;;;14.47;10.00;;;8.30;1.00;;;;;;5049059;28;21008;-75
2022/11/14 08:20:14;;;;;;;15.63;10.30;;;8.40;1.00;;;;;;5050541;28;20175;-76
2022/11/14 08:22:40;;;;;;;12.50;9.63;;;8.50;1.00;;;;;;5046620;28;20271;-75
2022/11/14 08:25:06;;;;;;;16.23;10.37;;;8.70;1.00;;;;;;5048292;28;20211;-75
2022/11/14 08:27:31;;;;;;;17.33;10.13;;;8.90;1.00;;;;;;5042910;28;20595;-76
2022/11/14 08:29:57;;;;;;;15.10;9.90;;;9.00;1.00;;;;;;5051014;28;20192;-75
2022/11/14 08:32:22;;;;;;;15.70;10.17;;;9.10;1.00;;;;;;5047262;28;20619;-75
2022/11/14 08:34:48;;;;;;;14.63;10.10;;;9.20;1.00;;;;;;5042456;28;20244;-75
2022/11/14 08:37:14;;;;;;;15.50;10.17;;;9.30;1.00;;;;;;5048231;28;20179;-75
2022/11/14 08:39:39;;;;;;;14.37;10.60;;;9.30;1.00;;;;;;5037989;28;20310;-75
2022/11/14 08:42:05;;;;;;;16.77;9.70;;;9.30;1.00;;;;;;5043070;28;20185;-76
2022/11/14 08:44:30;;;;;;;18.30;10.90;;;9.10;1.00;;;;;;5044681;28;20286;-76
2022/11/14 08:46:59;;;;;;;14.70;10.03;;;9.10;1.00;;;;;;5050587;28;20177;-75
2022/11/14 08:49:25;;;;;;;14.97;10.17;;;9.10;1.00;;;;;;5040997;28;20185;-76
2022/11/14 08:51:51;;;;;;;14.63;9.67;;;9.10;1.00;;;;;;5040376;28;20877;-76
2022/11/14 08:54:18;;;;;;;15.67;9.37;;;9.10;1.00;;;;;;5038815;28;20482;-76
2022/11/14 08:56:43;;;;;;;14.60;9.70;;;9.20;1.00;;;;;;5044343;28;20444;-76
2022/11/14 08:59:09;;;;;;;14.30;8.80;;;9.30;1.00;;;;;;5049095;28;20419;-76
2022/11/14 09:01:34;;;;;;;13.57;8.93;;;9.30;1.00;;;;;;5045845;28;20274;-76
2022/11/14 09:04:00;;;;;;;15.87;9.20;;;9.30;1.00;;;;;;5047466;28;20197;-76
2022/11/14 09:06:25;;;;;;;15.27;8.70;;;9.30;1.00;;;;;;5051030;28;20570;-76
2022/11/14 09:08:51;;;;;;;13.63;8.60;;;9.40;1.00;;;;;;5042849;28;20177;-76
2022/11/14 09:11:17;;;;;;;16.00;8.80;;;9.40;1.00;;;;;;5034116;28;20743;-76
2022/11/14 09:13:42;;;;;;;15.67;10.30;;;9.50;1.00;;;;;;5033738;28;20239;-76
2022/11/14 09:16:08;;;;;;;13.97;9.77;;;9.50;1.00;;;;;;5042362;28;20205;-76
2022/11/14 09:18:33;;;;;;;14.30;9.93;;;9.40;1.00;;;;;;5032826;28;20537;-76
2022/11/14 09:21:07;;;;;;;14.57;9.80;;;9.40;1.00;;;;;;5038457;28;20197;-75
2022/11/14 09:23:33;;;;;;;16.93;9.87;;;9.50;1.00;;;;;;5030950;28;20229;-75
2022/11/14 09:26:07;;;;;;;11.53;8.20;;;9.40;1.00;;;;;;5046042;28;20416;-76
2022/11/14 09:28:33;;;;;;;13.77;8.13;;;9.50;1.00;;;;;;5050161;28;20506;-76
2022/11/14 09:31:03;;;;;;;16.40;8.90;;;9.60;1.00;;;;;;5050646;28;20491;-76
2022/11/14 09:33:28;;;;;;;13.40;8.83;;;9.70;1.00;;;;;;5042418;28;20440;-76
2022/11/14 09:36:02;;;;;;;16.73;9.23;;;9.70;1.00;;;;;;5047241;28;21209;-76
2022/11/14 09:38:28;;;;;;;14.53;9.60;;;9.60;1.00;;;;;;5046723;28;20222;-76
2022/11/14 09:41:19;;;;;;;11.30;8.40;;;9.60;1.00;;;;;;5041893;28;20420;-75
2022/11/14 09:43:56;;;;;;;13.07;8.80;;;9.60;1.00;;;;;;5043786;28;20213;-76
2022/11/14 09:46:32;;;;;;;13.57;8.90;;;9.70;1.00;;;;;;5039189;28;20494;-76
2022/11/14 09:48:57;;;;;;;12.60;8.60;;;9.80;1.00;;;;;;5044026;28;20510;-76
2022/11/14 09:51:28;;;;;;;13.37;8.73;;;9.90;1.00;;;;;;5046148;28;20528;-76
2022/11/14 09:54:23;;;;;;;13.10;8.00;;;10.00;1.00;;;;;;5048442;28;20208;-76
2022/11/14 09:56:49;;;;;;;9.80;6.90;;;9.90;1.00;;;;;;5045884;28;20813;-76
2022/11/14 09:59:15;;;;;;;12.20;7.13;;;9.90;1.00;;;;;;5030889;28;20852;-76
2022/11/14 10:01:59;;;;;;;10.13;7.40;;;9.90;1.00;;;;;;5030522;28;20416;-76
2022/11/14 10:04:40;;;;;;;10.40;6.50;;;9.90;1.00;;;;;;5029724;28;20335;-76
2022/11/14 10:07:43;;;;;;;9.50;7.10;;;10.00;1.00;;;;;;5046402;28;20422;-76
2022/11/14 10:10:33;;;;;;;9.80;6.33;;;10.10;1.00;;;;;;5030533;28;20964;-76
2022/11/14 10:13:10;;;;;;;9.17;6.33;;;10.40;1.00;;;;;;5030404;28;20466;-76
2022/11/14 10:15:47;;;;;;;8.37;6.47;;;10.30;1.00;;;;;;5031704;28;20456;-76
2022/11/14 10:18:35;;;;;;;10.20;7.17;;;10.40;1.00;;;;;;5042083;28;20423;-77
2022/11/14 10:21:32;;;;;;;9.33;6.80;;;10.50;1.00;;;;;;5039441;28;20839;-75
2022/11/14 10:24:18;;;;;;;8.93;6.37;;;10.70;1.00;;;;;;5033398;28;20433;-76
2022/11/14 10:27:03;;;;;;;7.57;5.87;;;10.80;1.00;;;;;;5043144;28;20792;-76
2022/11/14 10:30:17;;;;;;;10.03;6.20;;;11.00;1.00;;;;;;5046169;28;20442;-76
2022/11/14 10:33:10;;;;;;;9.60;6.10;;;11.00;1.00;;;;;;5033655;28;20500;-76
2022/11/14 10:35:42;;;;;;;7.67;6.03;;;11.00;1.00;;;;;;5046915;28;20473;-76
2022/11/14 10:38:22;;;;;;;7.93;6.13;;;11.30;1.00;;;;;;5050300;28;20404;-76
2022/11/14 10:40:59;;;;;;;7.63;5.20;;;11.70;1.00;;;;;;5038539;28;20840;-75
2022/11/14 10:43:47;;;;;;;8.83;5.70;;;12.10;1.00;;;;;;5049795;28;20427;-76
2022/11/14 10:46:17;;;;;;;7.20;5.60;;;12.60;1.00;;;;;;5041281;28;20427;-76
2022/11/14 10:48:48;;;;;;;8.17;5.30;;;12.00;1.00;;;;;;5035527;28;20517;-75
2022/11/14 10:51:18;;;;;;;10.70;5.97;;;12.00;1.00;;;;;;5047888;28;20412;-75
2022/11/14 10:53:55;;;;;;;7.43;5.33;;;12.00;1.00;;;;;;5045864;28;20926;-75
2022/11/14 10:56:21;;;;;;;8.53;5.57;;;12.00;1.00;;;;;;5053804;28;20451;-76
2022/11/14 10:58:46;;;;;;;7.50;4.87;;;11.90;1.00;;;;;;5052512;28;20936;-75
2022/11/14 11:01:49;;;;;;;5.73;4.53;;;11.80;1.00;;;;;;5048603;28;20185;-76
2022/11/14 11:04:29;;;;;;;6.33;4.50;;;11.70;1.00;;;;;;5024576;28;20658;-76
2022/11/14 11:11:28;;;;;;;5.87;4.60;;;11.60;1.00;;;;;;5044538;28;20434;-75
2022/11/14 11:12:49;;;;;;;5.00;3.83;;;11.80;1.00;;;;;;5046321;28;20450;-75
2022/11/14 11:15:26;;;;;;;9.07;4.77;;;11.80;1.00;;;;;;5045099;28;20487;-75
2022/11/14 11:17:57;;;;;;;7.30;3.90;;;11.80;1.00;;;;;;5041064;28;20428;-75
2022/11/14 11:20:25;;;;;;;5.60;4.20;;;11.80;1.00;;;;;;5049345;28;20500;-75
2022/11/14 11:23:03;;;;;;;5.80;3.60;;;11.70;1.00;;;;;;5043530;28;20489;-75
2022/11/14 11:25:30;;;;;;;5.90;4.00;;;11.70;1.00;;;;;;5052875;28;20770;-75
2022/11/14 11:28:05;;;;;;;7.50;4.40;;;11.70;1.00;;;;;;5050988;28;20520;-75
2022/11/14 11:30:31;;;;;;;7.27;3.63;;;11.70;1.00;;;;;;5046793;28;20427;-75
2022/11/14 11:33:14;;;;;;;6.27;4.20;;;11.80;1.00;;;;;;5044919;28;20439;-76
2022/11/14 11:35:42;;;;;;;8.00;5.80;;;11.90;1.00;;;;;;5043561;28;20490;-75
2022/11/14 11:38:10;;;;;;;6.10;4.50;;;11.70;1.00;;;;;;5042858;28;20432;-75
2022/11/14 11:40:36;;;;;;;6.33;4.13;;;11.70;1.00;;;;;;5044102;28;20503;-75
2022/11/14 11:43:07;;;;;;;5.00;4.13;;;11.70;1.00;;;;;;5045018;28;20512;-75
2022/11/14 11:45:34;;;;;;;6.90;4.10;;;11.70;1.00;;;;;;5043078;28;20507;-76
2022/11/14 11:48:20;;;;;;;4.47;3.90;;;11.70;1.00;;;;;;5051764;28;20960;-76
2022/11/14 11:50:46;;;;;;;5.00;4.23;;;11.60;1.00;;;;;;5038163;28;20420;-75
2022/11/14 11:53:23;;;;;;;7.10;4.40;;;11.60;1.00;;;;;;5033185;28;20440;-75
2022/11/14 11:55:53;;;;;;;7.20;4.43;;;11.60;1.00;;;;;;5045470;28;20459;-75
2022/11/14 11:58:26;;;;;;;6.20;4.53;;;11.50;1.00;;;;;;5047348;28;20416;-75
2022/11/14 12:00:55;;;;;;;8.43;4.87;;;11.50;1.00;;;;;;5049958;28;20838;-73
2022/11/14 12:03:24;;;;;;;9.93;4.10;;;11.60;1.00;;;;;;5049714;28;20471;-75
2022/11/14 12:05:52;;;;;;;6.07;4.33;;;11.70;1.00;;;;;;5051471;28;20434;-75
2022/11/14 12:08:35;;;;;;;6.43;3.87;;;11.70;1.00;;;;;;5050905;28;20915;-76
2022/11/14 12:11:03;;;;;;;9.02;4.22;;;11.70;1.00;;;;;;5051011;28;20518;-75
2022/11/14 12:13:40;;;;;;;4.80;3.80;;;11.80;1.00;;;;;;5052108;28;20243;-75
2022/11/14 12:16:36;;;;;;;6.70;4.10;;;11.80;1.00;;;;;;5041227;28;20486;-75
2022/11/14 12:19:29;;;;;;;6.90;3.60;;;11.80;1.00;;;;;;5025728;28;20806;-75
2022/11/14 12:22:29;;;;;;;4.60;3.70;;;11.80;1.00;;;;;;5031379;28;20436;-75
2022/11/14 12:25:16;;;;;;;4.10;3.30;;;11.90;1.00;;;;;;5031768;28;20441;-74
2022/11/14 12:28:23;;;;;;;9.10;3.80;;;11.90;1.00;;;;;;5034941;28;20981;-75
2022/11/14 12:30:55;;;;;;;7.33;4.63;;;11.90;1.00;;;;;;5039440;28;20447;-75
2022/11/14 12:33:30;;;;;;;5.83;3.30;;;11.90;1.00;;;;;;5044398;28;20436;-79
2022/11/14 12:35:59;;;;;;;4.03;3.40;;;12.00;1.00;;;;;;5044696;28;20459;-74
2022/11/14 12:38:39;;;;;;;10.03;3.80;;;12.00;1.00;;;;;;5051506;28;20443;-76
2022/11/14 12:41:06;;;;;;;6.40;3.97;;;12.00;1.00;;;;;;5043785;28;20412;-74
2022/11/14 12:43:41;;;;;;;8.67;3.80;;;12.00;1.00;;;;;;5031308;28;20432;-74
2022/11/14 12:46:11;;;;;;;4.77;3.47;;;12.10;1.00;;;;;;5043444;28;20419;-74
2022/11/14 12:48:46;;;;;;;8.87;4.10;;;12.10;1.00;;;;;;5044915;28;20432;-75
2022/11/14 12:51:24;;;;;;;4.90;3.77;;;12.20;1.00;;;;;;5042893;28;20459;-75
2022/11/14 12:53:51;;;;;;;7.93;5.20;;;12.20;1.00;;;;;;5051274;28;20786;-75
2022/11/14 12:56:16;;;;;;;4.80;3.80;;;12.30;1.00;;;;;;5051176;28;20464;-74